sensor_id;sensor_type;location;lat;lon;timestamp;pressure;altitude;pressure_sealevel;temperature;humidity
38780;BME280;29273;49.962;9.768;2023-01-29T00:01:27;101082.00;;;4.71;45.13
38780;BME280;29273;49.962;9.768;2023-01-29T00:03:53;101078.53;;;4.71;44.97
38780;BME280;29273;49.962;9.768;2023-01-29T00:06:18;101070.69;;;4.71;44.88
38780;BME280;29273;49.962;9.768;2023-01-29T00:08:44;101081.44;;;4.68;44.85
38780;BME280;29273;49.962;9.768;2023-01-29T00:11:11;101077.97;;;4.67;44.68
38780;BME280;29273;49.962;9.768;2023-01-29T00:13:37;101086.00;;;4.66;44.88
38780;BME280;29273;49.962;9.768;2023-01-29T00:16:03;101085.84;;;4.67;44.85
38780;BME280;29273;49.962;9.768;2023-01-29T00:18:29;101079.22;;;4.63;45.00
38780;BME280;29273;49.962;9.768;2023-01-29T00:20:55;101079.22;;;4.63;44.39
38780;BME280;29273;49.962;9.768;2023-01-29T00:23:21;101064.56;;;4.60;44.70
38780;BME280;29273;49.962;9.768;2023-01-29T00:25:47;101058.63;;;4.58;44.52
38780;BME280;29273;49.962;9.768;2023-01-29T00:28:13;101060.41;;;4.58;44.63
38780;BME280;29273;49.962;9.768;2023-01-29T00:30:39;101067.56;;;4.56;44.93
38780;BME280;29273;49.962;9.768;2023-01-29T00:33:05;101057.94;;;4.56;45.16
38780;BME280;29273;49.962;9.768;2023-01-29T00:35:31;101060.56;;;4.56;44.97
38780;BME280;29273;49.962;9.768;2023-01-29T00:37:57;101061.38;;;4.57;45.24
38780;BME280;29273;49.962;9.768;2023-01-29T00:40:24;101057.94;;;4.56;45.21
38780;BME280;29273;49.962;9.768;2023-01-29T00:42:50;101059.69;;;4.56;44.81
38780;BME280;29273;49.962;9.768;2023-01-29T00:45:34;101062.72;;;4.51;44.83
38780;BME280;29273;49.962;9.768;2023-01-29T00:48:04;101059.28;;;4.51;44.98
38780;BME280;29273;49.962;9.768;2023-01-29T00:50:30;101064.78;;;4.48;44.91
38780;BME280;29273;49.962;9.768;2023-01-29T00:52:56;101060.63;;;4.45;44.78
38780;BME280;29273;49.962;9.768;2023-01-29T00:55:22;101067.09;;;4.41;44.72
38780;BME280;29273;49.962;9.768;2023-01-29T00:57:48;101064.72;;;4.38;45.33
38780;BME280;29273;49.962;9.768;2023-01-29T01:00:16;101057.56;;;4.40;45.28
38780;BME280;29273;49.962;9.768;2023-01-29T01:02:42;101062.09;;;4.38;45.41
38780;BME280;29273;49.962;9.768;2023-01-29T01:05:26;101052.59;;;4.37;45.18
38780;BME280;29273;49.962;9.768;2023-01-29T01:07:53;101054.94;;;4.40;45.27
38780;BME280;29273;49.962;9.768;2023-01-29T01:10:31;101048.47;;;4.44;45.95
38780;BME280;29273;49.962;9.768;2023-01-29T01:12:58;101051.34;;;4.41;45.34
38780;BME280;29273;49.962;9.768;2023-01-29T01:15:33;101058.13;;;4.43;45.48
38780;BME280;29273;49.962;9.768;2023-01-29T01:18:00;101058.28;;;4.42;45.15
38780;BME280;29273;49.962;9.768;2023-01-29T01:20:28;101055.50;;;4.43;45.33
38780;BME280;29273;49.962;9.768;2023-01-29T01:22:54;101053.03;;;4.42;45.23
38780;BME280;29273;49.962;9.768;2023-01-29T01:25:24;101053.16;;;4.40;45.32
38780;BME280;29273;49.962;9.768;2023-01-29T01:27:54;101054.53;;;4.44;45.53
38780;BME280;29273;49.962;9.768;2023-01-29T01:30:21;101044.59;;;4.38;45.10
38780;BME280;29273;49.962;9.768;2023-01-29T01:32:47;101041.13;;;4.38;45.35
38780;BME280;29273;49.962;9.768;2023-01-29T01:35:12;101038.63;;;4.36;45.08
38780;BME280;29273;49.962;9.768;2023-01-29T01:37:39;101041.41;;;4.35;45.44
38780;BME280;29273;49.962;9.768;2023-01-29T01:40:11;101042.91;;;4.37;45.53
38780;BME280;29273;49.962;9.768;2023-01-29T01:42:50;101046.22;;;4.39;45.52
38780;BME280;29273;49.962;9.768;2023-01-29T01:45:20;101040.28;;;4.37;45.37
38780;BME280;29273;49.962;9.768;2023-01-29T01:47:49;101040.28;;;4.37;45.70
38780;BME280;29273;49.962;9.768;2023-01-29T01:53:09;101030.63;;;4.38;45.91
38780;BME280;29273;49.962;9.768;2023-01-29T01:55:43;101030.50;;;4.39;45.57
38780;BME280;29273;49.962;9.768;2023-01-29T01:58:16;101027.19;;;4.37;45.35
38780;BME280;29273;49.962;9.768;2023-01-29T02:00:43;101027.44;;;4.34;45.21
38780;BME280;29273;49.962;9.768;2023-01-29T02:03:09;101025.66;;;4.35;45.30
38780;BME280;29273;49.962;9.768;2023-01-29T02:05:56;101021.25;;;4.35;45.30
38780;BME280;29273;49.962;9.768;2023-01-29T02:08:55;101027.19;;;4.37;45.66
38780;BME280;29273;49.962;9.768;2023-01-29T02:11:41;101026.63;;;4.34;45.57
38780;BME280;29273;49.962;9.768;2023-01-29T02:14:07;101029.94;;;4.36;45.22
38780;BME280;29273;49.962;9.768;2023-01-29T02:16:34;101025.38;;;4.38;45.18
38780;BME280;29273;49.962;9.768;2023-01-29T02:19:04;101019.88;;;4.41;45.10
38780;BME280;29273;49.962;9.768;2023-01-29T02:27:23;101012.56;;;4.44;45.91
38780;BME280;29273;49.962;9.768;2023-01-29T02:32:41;101007.06;;;4.48;45.63
38780;BME280;29273;49.962;9.768;2023-01-29T02:35:28;100998.25;;;4.49;45.59
38780;BME280;29273;49.962;9.768;2023-01-29T02:40:53;101005.97;;;4.50;45.76
38780;BME280;29273;49.962;9.768;2023-01-29T02:43:29;101006.38;;;4.45;45.04
38780;BME280;29273;49.962;9.768;2023-01-29T02:48:37;101008.59;;;4.50;45.61
38780;BME280;29273;49.962;9.768;2023-01-29T02:51:09;101007.78;;;4.50;45.58
38780;BME280;29273;49.962;9.768;2023-01-29T02:53:58;101005.16;;;4.50;45.77
38780;BME280;29273;49.962;9.768;2023-01-29T02:56:39;101013.03;;;4.50;45.52
38780;BME280;29273;49.962;9.768;2023-01-29T02:59:18;101021.84;;;4.49;45.57
38780;BME280;29273;49.962;9.768;2023-01-29T03:01:49;101019.34;;;4.47;45.46
38780;BME280;29273;49.962;9.768;2023-01-29T03:04:21;101028.19;;;4.46;45.54
38780;BME280;29273;49.962;9.768;2023-01-29T03:06:54;101027.34;;;4.45;45.36
38780;BME280;29273;49.962;9.768;2023-01-29T03:09:27;101037.03;;;4.45;45.56
38780;BME280;29273;49.962;9.768;2023-01-29T03:11:58;101035.47;;;4.42;45.63
38780;BME280;29273;49.962;9.768;2023-01-29T03:14:35;101036.47;;;4.41;45.82
38780;BME280;29273;49.962;9.768;2023-01-29T03:17:24;101043.72;;;4.38;45.68
38780;BME280;29273;49.962;9.768;2023-01-29T03:19:50;101039.84;;;4.32;45.45
38780;BME280;29273;49.962;9.768;2023-01-29T03:22:21;101040.81;;;4.31;45.40
38780;BME280;29273;49.962;9.768;2023-01-29T03:24:57;101047.59;;;4.34;45.68
38780;BME280;29273;49.962;9.768;2023-01-29T03:30:44;101051.28;;;4.31;46.14
38780;BME280;29273;49.962;9.768;2023-01-29T03:34:06;101056.66;;;4.30;46.35
38780;BME280;29273;49.962;9.768;2023-01-29T03:37:11;101047.53;;;4.24;46.41
38780;BME280;29273;49.962;9.768;2023-01-29T03:39:39;101049.91;;;4.27;45.58
38780;BME280;29273;49.962;9.768;2023-01-29T03:42:19;101048.53;;;4.33;45.79
38780;BME280;29273;49.962;9.768;2023-01-29T03:44:53;101051.44;;;4.30;45.63
38780;BME280;29273;49.962;9.768;2023-01-29T03:47:44;101046.47;;;4.26;45.74
38780;BME280;29273;49.962;9.768;2023-01-29T03:50:32;101043.25;;;4.23;45.44
38780;BME280;29273;49.962;9.768;2023-01-29T03:53:05;101054.97;;;4.19;44.95
38780;BME280;29273;49.962;9.768;2023-01-29T03:55:40;101057.47;;;4.20;45.64
38780;BME280;29273;49.962;9.768;2023-01-29T03:58:33;101057.72;;;4.17;45.74
38780;BME280;29273;49.962;9.768;2023-01-29T04:01:18;101050.97;;;4.15;45.82
38780;BME280;29273;49.962;9.768;2023-01-29T04:04:02;101059.53;;;4.17;45.67
38780;BME280;29273;49.962;9.768;2023-01-29T04:06:33;101057.03;;;4.15;45.35
38780;BME280;29273;49.962;9.768;2023-01-29T04:09:15;101062.13;;;4.17;45.49
38780;BME280;29273;49.962;9.768;2023-01-29T04:11:47;101050.97;;;4.15;45.47
38780;BME280;29273;49.962;9.768;2023-01-29T04:14:14;101054.91;;;4.09;45.38
38780;BME280;29273;49.962;9.768;2023-01-29T04:16:44;101049.41;;;4.12;45.52
38780;BME280;29273;49.962;9.768;2023-01-29T04:19:19;101041.09;;;4.07;45.28
38780;BME280;29273;49.962;9.768;2023-01-29T04:21:45;101037.53;;;4.08;45.44
38780;BME280;29273;49.962;9.768;2023-01-29T04:24:14;101038.34;;;4.08;45.24
38780;BME280;29273;49.962;9.768;2023-01-29T04:26:57;101040.72;;;4.12;45.65
38780;BME280;29273;49.962;9.768;2023-01-29T04:41:10;101039.06;;;4.11;45.64
38780;BME280;29273;49.962;9.768;2023-01-29T04:43:58;101030.09;;;4.13;45.84
38780;BME280;29273;49.962;9.768;2023-01-29T04:49:11;101010.66;;;4.16;45.31
38780;BME280;29273;49.962;9.768;2023-01-29T04:51:48;100995.03;;;4.14;44.93
38780;BME280;29273;49.962;9.768;2023-01-29T04:54:27;100988.28;;;4.12;45.15
38780;BME280;29273;49.962;9.768;2023-01-29T04:57:12;100983.44;;;4.07;45.38
38780;BME280;29273;49.962;9.768;2023-01-29T04:59:43;100981.50;;;3.88;45.74
38780;BME280;29273;49.962;9.768;2023-01-29T05:02:12;100988.50;;;3.99;45.29
38780;BME280;29273;49.962;9.768;2023-01-29T05:04:38;100980.63;;;3.99;45.27
38780;BME280;29273;49.962;9.768;2023-01-29T05:07:07;100984.06;;;3.99;45.65
38780;BME280;29273;49.962;9.768;2023-01-29T05:09:36;100994.56;;;3.99;45.59
38780;BME280;29273;49.962;9.768;2023-01-29T05:12:06;100992.78;;;4.00;45.89
38780;BME280;29273;49.962;9.768;2023-01-29T05:14:34;100990.16;;;4.00;45.49
38780;BME280;29273;49.962;9.768;2023-01-29T05:17:03;101000.34;;;4.03;46.03
38780;BME280;29273;49.962;9.768;2023-01-29T05:19:30;101003.16;;;4.01;45.57
38780;BME280;29273;49.962;9.768;2023-01-29T05:21:56;100994.44;;;4.01;45.92
38780;BME280;29273;49.962;9.768;2023-01-29T05:24:24;101007.16;;;4.05;45.92
38780;BME280;29273;49.962;9.768;2023-01-29T05:26:52;101006.19;;;4.06;45.84
38780;BME280;29273;49.962;9.768;2023-01-29T05:29:42;101006.91;;;4.08;46.00
38780;BME280;29273;49.962;9.768;2023-01-29T05:32:09;101012.41;;;4.05;45.69
38780;BME280;29273;49.962;9.768;2023-01-29T05:34:34;101012.25;;;4.07;45.82
38780;BME280;29273;49.962;9.768;2023-01-29T05:37:00;101010.59;;;4.06;45.82
38780;BME280;29273;49.962;9.768;2023-01-29T05:39:25;101009.78;;;4.05;45.83
38780;BME280;29273;49.962;9.768;2023-01-29T05:41:50;101008.94;;;4.05;45.69
38780;BME280;29273;49.962;9.768;2023-01-29T05:44:16;101007.41;;;4.02;45.79
38780;BME280;29273;49.962;9.768;2023-01-29T05:46:41;101011.81;;;4.02;45.94
38780;BME280;29273;49.962;9.768;2023-01-29T05:49:08;101010.84;;;4.03;45.77
38780;BME280;29273;49.962;9.768;2023-01-29T05:51:33;101011.00;;;4.01;45.69
38780;BME280;29273;49.962;9.768;2023-01-29T05:53:59;101011.00;;;4.01;45.55
38780;BME280;29273;49.962;9.768;2023-01-29T05:56:24;101008.38;;;4.01;45.66
38780;BME280;29273;49.962;9.768;2023-01-29T05:58:50;101015.28;;;4.02;45.48
38780;BME280;29273;49.962;9.768;2023-01-29T06:01:18;101014.06;;;4.06;45.52
38780;BME280;29273;49.962;9.768;2023-01-29T06:03:44;101014.06;;;4.06;45.49
38780;BME280;29273;49.962;9.768;2023-01-29T06:06:10;101022.88;;;4.05;45.69
38780;BME280;29273;49.962;9.768;2023-01-29T06:08:36;101026.44;;;4.04;45.91
38780;BME280;29273;49.962;9.768;2023-01-29T06:11:02;101029.94;;;4.05;45.99
38780;BME280;29273;49.962;9.768;2023-01-29T06:13:29;101029.06;;;4.04;46.07
38780;BME280;29273;49.962;9.768;2023-01-29T06:15:54;101029.06;;;4.04;46.19
38780;BME280;29273;49.962;9.768;2023-01-29T06:18:19;101029.19;;;4.03;46.32
38780;BME280;29273;49.962;9.768;2023-01-29T06:20:45;101016.94;;;4.03;46.01
38780;BME280;29273;49.962;9.768;2023-01-29T06:23:11;101021.22;;;4.04;46.04
38780;BME280;29273;49.962;9.768;2023-01-29T06:25:36;101012.53;;;4.04;45.85
38780;BME280;29273;49.962;9.768;2023-01-29T06:28:02;101009.78;;;4.05;45.95
38780;BME280;29273;49.962;9.768;2023-01-29T06:30:27;101001.91;;;4.05;45.79
38780;BME280;29273;49.962;9.768;2023-01-29T06:32:58;100998.91;;;4.10;46.05
38780;BME280;29273;49.962;9.768;2023-01-29T06:35:26;101000.97;;;4.06;45.78
38780;BME280;29273;49.962;9.768;2023-01-29T06:37:51;100998.34;;;4.06;45.73
38780;BME280;29273;49.962;9.768;2023-01-29T06:40:17;101007.97;;;4.06;45.27
38780;BME280;29273;49.962;9.768;2023-01-29T06:42:42;101001.91;;;4.05;45.44
38780;BME280;29273;49.962;9.768;2023-01-29T06:45:08;100999.28;;;4.05;45.89
38780;BME280;29273;49.962;9.768;2023-01-29T06:47:34;101010.72;;;4.04;45.63
38780;BME280;29273;49.962;9.768;2023-01-29T06:49:59;101007.16;;;4.05;45.91
38780;BME280;29273;49.962;9.768;2023-01-29T06:52:25;101011.56;;;4.05;46.11
38780;BME280;29273;49.962;9.768;2023-01-29T06:54:54;101013.34;;;4.04;46.09
38780;BME280;29273;49.962;9.768;2023-01-29T06:57:19;101012.53;;;4.04;46.10
38780;BME280;29273;49.962;9.768;2023-01-29T06:59:45;101010.84;;;4.03;45.95
38780;BME280;29273;49.962;9.768;2023-01-29T07:02:11;101005.59;;;4.03;45.89
38780;BME280;29273;49.962;9.768;2023-01-29T07:04:36;100999.53;;;4.02;46.03
38780;BME280;29273;49.962;9.768;2023-01-29T07:07:02;100996.66;;;4.05;45.92
38780;BME280;29273;49.962;9.768;2023-01-29T07:09:27;101007.16;;;4.05;45.78
38780;BME280;29273;49.962;9.768;2023-01-29T07:11:53;101012.53;;;4.04;45.79
38780;BME280;29273;49.962;9.768;2023-01-29T07:14:18;101021.22;;;4.04;45.61
38780;BME280;29273;49.962;9.768;2023-01-29T07:16:44;101024.94;;;4.02;45.30
38780;BME280;29273;49.962;9.768;2023-01-29T07:19:09;101018.00;;;4.01;45.47
38780;BME280;29273;49.962;9.768;2023-01-29T07:21:36;101016.38;;;4.00;45.42
38780;BME280;29273;49.962;9.768;2023-01-29T07:24:01;101014.00;;;3.97;45.44
38780;BME280;29273;49.962;9.768;2023-01-29T07:26:27;101015.78;;;3.96;45.71
38780;BME280;29273;49.962;9.768;2023-01-29T07:28:53;101016.75;;;3.95;45.90
38780;BME280;29273;49.962;9.768;2023-01-29T07:31:18;101014.25;;;3.94;46.11
38780;BME280;29273;49.962;9.768;2023-01-29T07:33:44;101008.06;;;3.95;45.97
38780;BME280;29273;49.962;9.768;2023-01-29T07:36:11;101014.13;;;3.95;46.02
38780;BME280;29273;49.962;9.768;2023-01-29T07:38:36;101014.94;;;3.96;45.99
38780;BME280;29273;49.962;9.768;2023-01-29T07:41:02;101006.00;;;3.98;46.07
38780;BME280;29273;49.962;9.768;2023-01-29T07:43:28;101012.91;;;3.99;46.26
38780;BME280;29273;49.962;9.768;2023-01-29T07:45:54;101014.56;;;4.00;46.28
38780;BME280;29273;49.962;9.768;2023-01-29T07:48:19;101017.06;;;4.02;46.53
38780;BME280;29273;49.962;9.768;2023-01-29T07:50:53;101021.94;;;4.06;46.48
38780;BME280;29273;49.962;9.768;2023-01-29T07:53:18;101025.63;;;4.04;46.17
38780;BME280;29273;49.962;9.768;2023-01-29T07:55:44;101021.34;;;4.03;46.02
38780;BME280;29273;49.962;9.768;2023-01-29T07:58:10;101017.75;;;4.04;46.33
38780;BME280;29273;49.962;9.768;2023-01-29T08:00:35;101020.25;;;4.05;46.41
38780;BME280;29273;49.962;9.768;2023-01-29T08:03:03;101029.38;;;4.11;46.51
38780;BME280;29273;49.962;9.768;2023-01-29T08:05:29;101028.69;;;4.09;46.44
38780;BME280;29273;49.962;9.768;2023-01-29T08:07:54;101028.56;;;4.11;46.38
38780;BME280;29273;49.962;9.768;2023-01-29T08:10:20;101037.00;;;4.14;46.60
38780;BME280;29273;49.962;9.768;2023-01-29T08:12:46;101043.91;;;4.15;46.56
38780;BME280;29273;49.962;9.768;2023-01-29T08:15:11;101042.94;;;4.16;46.64
38780;BME280;29273;49.962;9.768;2023-01-29T08:17:37;101048.34;;;4.15;46.83
38780;BME280;29273;49.962;9.768;2023-01-29T08:20:05;101057.59;;;4.19;46.71
38780;BME280;29273;49.962;9.768;2023-01-29T08:22:31;101067.13;;;4.20;46.83
38780;BME280;29273;49.962;9.768;2023-01-29T08:24:57;101062.00;;;4.18;46.76
38780;BME280;29273;49.962;9.768;2023-01-29T08:27:22;101075.13;;;4.18;46.95
38780;BME280;29273;49.962;9.768;2023-01-29T08:29:48;101071.41;;;4.21;46.92
38780;BME280;29273;49.962;9.768;2023-01-29T08:32:13;101064.38;;;4.21;46.77
38780;BME280;29273;49.962;9.768;2023-01-29T08:34:39;101062.44;;;4.23;46.59
38780;BME280;29273;49.962;9.768;2023-01-29T08:37:04;101058.72;;;4.26;46.57
38780;BME280;29273;49.962;9.768;2023-01-29T08:39:30;101044.66;;;4.27;46.86
38780;BME280;29273;49.962;9.768;2023-01-29T08:41:55;101044.41;;;4.30;46.77
38780;BME280;29273;49.962;9.768;2023-01-29T08:44:21;101039.03;;;4.32;46.38
38780;BME280;29273;49.962;9.768;2023-01-29T08:46:46;101035.19;;;4.36;46.28
38780;BME280;29273;49.962;9.768;2023-01-29T08:49:12;101016.69;;;4.37;46.29
38780;BME280;29273;49.962;9.768;2023-01-29T08:51:37;101029.53;;;4.40;45.76
38780;BME280;29273;49.962;9.768;2023-01-29T08:54:03;101021.69;;;4.40;45.87
38780;BME280;29273;49.962;9.768;2023-01-29T08:56:28;101019.88;;;4.41;45.75
38780;BME280;29273;49.962;9.768;2023-01-29T08:58:54;101028.19;;;4.46;45.51
38780;BME280;29273;49.962;9.768;2023-01-29T09:01:19;101020.91;;;4.50;45.56
38780;BME280;29273;49.962;9.768;2023-01-29T09:03:44;101007.50;;;4.53;45.31
38780;BME280;29273;49.962;9.768;2023-01-29T09:06:12;101017.34;;;4.60;45.10
38780;BME280;29273;49.962;9.768;2023-01-29T09:08:38;101019.81;;;4.62;44.92
38780;BME280;29273;49.962;9.768;2023-01-29T09:11:04;101012.78;;;4.62;44.85
38780;BME280;29273;49.962;9.768;2023-01-29T09:13:30;101026.47;;;4.66;45.22
38780;BME280;29273;49.962;9.768;2023-01-29T09:16:03;101033.53;;;4.75;45.49
38780;BME280;29273;49.962;9.768;2023-01-29T09:18:29;101034.38;;;4.76;44.78
38780;BME280;29273;49.962;9.768;2023-01-29T09:20:56;101028.28;;;4.75;44.66
38780;BME280;29273;49.962;9.768;2023-01-29T09:23:22;101030.25;;;4.83;44.82
38780;BME280;29273;49.962;9.768;2023-01-29T09:25:48;101034.25;;;4.87;44.58
38780;BME280;29273;49.962;9.768;2023-01-29T09:28:13;101044.38;;;4.92;44.76
38780;BME280;29273;49.962;9.768;2023-01-29T09:30:42;101043.25;;;4.94;44.78
38780;BME280;29273;49.962;9.768;2023-01-29T09:33:07;101037.75;;;4.97;44.68
38780;BME280;29273;49.962;9.768;2023-01-29T09:35:33;101044.78;;;4.97;43.96
38780;BME280;29273;49.962;9.768;2023-01-29T09:37:59;101060.53;;;4.97;44.32
38780;BME280;29273;49.962;9.768;2023-01-29T09:40:51;101079.63;;;4.99;44.92
38780;BME280;29273;49.962;9.768;2023-01-29T09:43:21;101081.28;;;5.00;44.38
38780;BME280;29273;49.962;9.768;2023-01-29T09:45:53;101090.13;;;4.99;44.59
38780;BME280;29273;49.962;9.768;2023-01-29T09:48:22;101101.72;;;4.96;44.39
38780;BME280;29273;49.962;9.768;2023-01-29T09:50:51;101108.06;;;4.94;44.15
38780;BME280;29273;49.962;9.768;2023-01-29T09:53:25;101109.47;;;4.98;44.90
38780;BME280;29273;49.962;9.768;2023-01-29T09:56:01;101102.56;;;4.97;45.06
38780;BME280;29273;49.962;9.768;2023-01-29T09:58:31;101099.50;;;4.92;44.86
38780;BME280;29273;49.962;9.768;2023-01-29T10:01:23;101098.38;;;4.94;45.10
38780;BME280;29273;49.962;9.768;2023-01-29T10:23:10;101046.19;;;4.91;44.63
38780;BME280;29273;49.962;9.768;2023-01-29T10:25:41;101031.09;;;4.93;44.53
38780;BME280;29273;49.962;9.768;2023-01-29T10:28:30;101024.47;;;4.99;45.34
38780;BME280;29273;49.962;9.768;2023-01-29T10:31:01;101029.03;;;4.97;44.87
38780;BME280;29273;49.962;9.768;2023-01-29T10:33:34;101032.50;;;4.97;45.08
38780;BME280;29273;49.962;9.768;2023-01-29T10:36:04;101034.28;;;4.97;44.95
38780;BME280;29273;49.962;9.768;2023-01-29T10:38:42;101025.31;;;4.99;45.04
38780;BME280;29273;49.962;9.768;2023-01-29T11:00:27;100963.28;;;5.08;45.04
38780;BME280;29273;49.962;9.768;2023-01-29T11:02:54;100961.47;;;5.09;45.27
38780;BME280;29273;49.962;9.768;2023-01-29T11:05:28;100962.03;;;5.12;44.79
38780;BME280;29273;49.962;9.768;2023-01-29T11:08:36;100958.72;;;5.20;45.28
38780;BME280;29273;49.962;9.768;2023-01-29T11:11:00;100953.47;;;5.20;44.42
38780;BME280;29273;49.962;9.768;2023-01-29T11:13:33;100952.50;;;5.31;44.87
38780;BME280;29273;49.962;9.768;2023-01-29T11:16:04;100938.53;;;5.30;44.44
38780;BME280;29273;49.962;9.768;2023-01-29T11:18:54;100936.31;;;5.35;45.25
38780;BME280;29273;49.962;9.768;2023-01-29T11:21:21;100939.50;;;5.39;44.37
38780;BME280;29273;49.962;9.768;2023-01-29T11:23:48;100931.47;;;5.41;44.05
38780;BME280;29273;49.962;9.768;2023-01-29T11:26:17;100924.13;;;5.44;44.54
38780;BME280;29273;49.962;9.768;2023-01-29T11:28:49;100919.28;;;5.49;44.58
38780;BME280;29273;49.962;9.768;2023-01-29T11:33:59;100897.16;;;5.52;44.14
38780;BME280;29273;49.962;9.768;2023-01-29T11:36:37;100892.44;;;5.55;44.53
38780;BME280;29273;49.962;9.768;2023-01-29T11:39:14;100888.00;;;5.56;44.54
38780;BME280;29273;49.962;9.768;2023-01-29T11:41:47;100880.44;;;5.53;43.70
38780;BME280;29273;49.962;9.768;2023-01-29T11:49:37;100875.88;;;5.55;43.47
38780;BME280;29273;49.962;9.768;2023-01-29T11:52:05;100868.94;;;5.54;42.86
38780;BME280;29273;49.962;9.768;2023-01-29T11:54:37;100868.81;;;5.55;43.66
38780;BME280;29273;49.962;9.768;2023-01-29T11:57:04;100865.38;;;5.35;44.36
38780;BME280;29273;49.962;9.768;2023-01-29T12:02:22;100877.38;;;5.48;44.33
38780;BME280;29273;49.962;9.768;2023-01-29T12:04:56;100871.31;;;5.47;44.01
38780;BME280;29273;49.962;9.768;2023-01-29T12:07:23;100871.72;;;5.43;43.81
38780;BME280;29273;49.962;9.768;2023-01-29T12:09:52;100869.50;;;5.48;43.88
38780;BME280;29273;49.962;9.768;2023-01-29T12:12:32;100860.53;;;5.50;43.88
38780;BME280;29273;49.962;9.768;2023-01-29T12:15:16;100856.78;;;5.53;44.09
38780;BME280;29273;49.962;9.768;2023-01-29T12:17:55;100855.13;;;5.52;44.41
38780;BME280;29273;49.962;9.768;2023-01-29T12:20:27;100855.25;;;5.50;43.56
38780;BME280;29273;49.962;9.768;2023-01-29T12:22:56;100854.34;;;5.32;44.53
38780;BME280;29273;49.962;9.768;2023-01-29T12:25:53;100844.34;;;5.45;44.60
38780;BME280;29273;49.962;9.768;2023-01-29T12:39:55;100822.81;;;5.42;43.89
38780;BME280;29273;49.962;9.768;2023-01-29T12:42:22;100819.91;;;5.45;43.42
38780;BME280;29273;49.962;9.768;2023-01-29T12:44:54;100814.88;;;5.51;44.19
38780;BME280;29273;49.962;9.768;2023-01-29T12:47:27;100812.94;;;5.53;44.26
38780;BME280;29273;49.962;9.768;2023-01-29T12:49:56;100813.63;;;5.55;43.52
38780;BME280;29273;49.962;9.768;2023-01-29T12:52:42;100807.13;;;5.60;43.36
38780;BME280;29273;49.962;9.768;2023-01-29T12:55:17;100800.31;;;5.67;44.34
38780;BME280;29273;49.962;9.768;2023-01-29T13:00:15;100786.16;;;5.68;43.15
38780;BME280;29273;49.962;9.768;2023-01-29T13:02:46;100779.00;;;5.70;43.35
38780;BME280;29273;49.962;9.768;2023-01-29T13:05:23;100779.91;;;5.79;44.40
38780;BME280;29273;49.962;9.768;2023-01-29T13:07:53;100785.44;;;5.75;43.56
38780;BME280;29273;49.962;9.768;2023-01-29T13:10:28;100780.19;;;5.75;43.61
38780;BME280;29273;49.962;9.768;2023-01-29T13:13:01;100767.19;;;5.74;43.19
38780;BME280;29273;49.962;9.768;2023-01-29T13:15:35;100766.59;;;5.52;43.56
38780;BME280;29273;49.962;9.768;2023-01-29T13:18:39;100754.25;;;5.63;42.91
38780;BME280;29273;49.962;9.768;2023-01-29T13:21:13;100755.91;;;5.64;43.35
38780;BME280;29273;49.962;9.768;2023-01-29T13:23:46;100750.94;;;5.61;43.98
38780;BME280;29273;49.962;9.768;2023-01-29T13:26:16;100745.00;;;5.59;43.78
38780;BME280;29273;49.962;9.768;2023-01-29T13:28:43;100747.94;;;5.55;43.25
38780;BME280;29273;49.962;9.768;2023-01-29T13:31:19;100745.00;;;5.59;43.50
38780;BME280;29273;49.962;9.768;2023-01-29T13:36:44;100769.06;;;5.64;44.00
38780;BME280;29273;49.962;9.768;2023-01-29T13:41:42;100764.47;;;5.66;44.06
38780;BME280;29273;49.962;9.768;2023-01-29T13:44:34;100764.72;;;5.72;44.48
38780;BME280;29273;49.962;9.768;2023-01-29T13:47:03;100755.88;;;5.73;44.07
38780;BME280;29273;49.962;9.768;2023-01-29T13:51:58;100742.44;;;5.77;43.54
38780;BME280;29273;49.962;9.768;2023-01-29T13:54:37;100742.44;;;5.77;44.04
38780;BME280;29273;49.962;9.768;2023-01-29T13:57:02;100746.69;;;5.78;43.45
38780;BME280;29273;49.962;9.768;2023-01-29T14:02:21;100735.91;;;5.81;44.01
38780;BME280;29273;49.962;9.768;2023-01-29T14:04:47;100740.75;;;5.75;43.75
38780;BME280;29273;49.962;9.768;2023-01-29T14:07:38;100741.59;;;5.76;43.87
38780;BME280;29273;49.962;9.768;2023-01-29T14:10:18;100729.28;;;5.77;43.69
38780;BME280;29273;49.962;9.768;2023-01-29T14:12:46;100724.91;;;5.67;43.09
38780;BME280;29273;49.962;9.768;2023-01-29T14:15:19;100721.84;;;5.72;43.55
38780;BME280;29273;49.962;9.768;2023-01-29T14:23:02;100715.97;;;5.60;43.49
38780;BME280;29273;49.962;9.768;2023-01-29T14:25:31;100712.06;;;5.64;43.75
38780;BME280;29273;49.962;9.768;2023-01-29T14:28:02;100707.66;;;5.65;44.11
38780;BME280;29273;49.962;9.768;2023-01-29T14:30:33;100702.38;;;5.65;44.29
38780;BME280;29273;49.962;9.768;2023-01-29T14:33:01;100697.56;;;5.60;43.62
38780;BME280;29273;49.962;9.768;2023-01-29T14:35:29;100695.63;;;5.62;43.86
38780;BME280;29273;49.962;9.768;2023-01-29T14:38:01;100692.47;;;5.59;43.09
38780;BME280;29273;49.962;9.768;2023-01-29T14:40:29;100691.09;;;5.54;42.98
38780;BME280;29273;49.962;9.768;2023-01-29T14:43:02;100686.53;;;5.56;43.44
38780;BME280;29273;49.962;9.768;2023-01-29T14:45:36;100685.81;;;5.54;43.82
38780;BME280;29273;49.962;9.768;2023-01-29T14:53:09;100695.44;;;5.46;43.67
38780;BME280;29273;49.962;9.768;2023-01-29T14:55:36;100701.44;;;5.38;43.70
38780;BME280;29273;49.962;9.768;2023-01-29T14:58:03;100696.47;;;5.35;43.87
38780;BME280;29273;49.962;9.768;2023-01-29T15:00:33;100696.19;;;5.38;43.70
38780;BME280;29273;49.962;9.768;2023-01-29T15:03:04;100696.47;;;5.35;43.78
38780;BME280;29273;49.962;9.768;2023-01-29T15:05:37;100693.16;;;5.33;43.72
38780;BME280;29273;49.962;9.768;2023-01-29T15:08:07;100690.69;;;5.31;43.83
38780;BME280;29273;49.962;9.768;2023-01-29T15:10:51;100679.19;;;5.32;43.82
38780;BME280;29273;49.962;9.768;2023-01-29T15:13:52;100676.84;;;5.29;44.07
38780;BME280;29273;49.962;9.768;2023-01-29T15:16:29;100681.28;;;5.29;43.98
38780;BME280;29273;49.962;9.768;2023-01-29T15:19:07;100670.22;;;5.25;44.00